sensor_id;sensor_type;location;lat;lon;timestamp;P1;durP1;ratioP1;P2;durP2;ratioP2
66970;SDS011;53901;51.466;-2.588;2023-05-10T00:00:36;42.42;;;13.43;;
66970;SDS011;53901;51.466;-2.588;2023-05-10T00:03:02;39.70;;;14.13;;
66970;SDS011;53901;51.466;-2.588;2023-05-10T00:05:29;44.35;;;15.40;;
66970;SDS011;53901;51.466;-2.588;2023-05-10T00:07:55;41.58;;;17.08;;
66970;SDS011;53901;51.466;-2.588;2023-05-10T00:10:21;36.03;;;15.80;;
66970;SDS011;53901;51.466;-2.588;2023-05-10T00:12:46;41.60;;;16.55;;
66970;SDS011;53901;51.466;-2.588;2023-05-10T00:15:11;41.42;;;16.80;;
66970;SDS011;53901;51.466;-2.588;2023-05-10T00:17:37;40.10;;;16.00;;
66970;SDS011;53901;51.466;-2.588;2023-05-10T00:20:02;42.78;;;17.13;;
66970;SDS011;53901;51.466;-2.588;2023-05-10T00:22:30;41.60;;;17.50;;
66970;SDS011;53901;51.466;-2.588;2023-05-10T00:24:56;36.50;;;16.92;;
66970;SDS011;53901;51.466;-2.588;2023-05-10T00:27:21;54.55;;;20.40;;
66970;SDS011;53901;51.466;-2.588;2023-05-10T00:29:46;39.47;;;18.45;;
66970;SDS011;53901;51.466;-2.588;2023-05-10T00:32:12;49.30;;;19.35;;
66970;SDS011;53901;51.466;-2.588;2023-05-10T00:34:38;50.17;;;19.42;;
66970;SDS011;53901;51.466;-2.588;2023-05-10T00:37:04;56.17;;;21.00;;
66970;SDS011;53901;51.466;-2.588;2023-05-10T00:39:29;53.13;;;19.50;;
66970;SDS011;53901;51.466;-2.588;2023-05-10T00:41:55;55.42;;;19.58;;
66970;SDS011;53901;51.466;-2.588;2023-05-10T00:44:20;48.50;;;19.55;;
66970;SDS011;53901;51.466;-2.588;2023-05-10T00:46:46;49.05;;;19.58;;
66970;SDS011;53901;51.466;-2.588;2023-05-10T00:49:12;60.53;;;21.40;;
66970;SDS011;53901;51.466;-2.588;2023-05-10T00:51:37;49.83;;;20.52;;
66970;SDS011;53901;51.466;-2.588;2023-05-10T00:54:03;55.67;;;19.42;;
66970;SDS011;53901;51.466;-2.588;2023-05-10T00:56:28;58.78;;;20.08;;
66970;SDS011;53901;51.466;-2.588;2023-05-10T00:58:54;45.35;;;19.73;;
66970;SDS011;53901;51.466;-2.588;2023-05-10T01:01:20;50.25;;;19.90;;
66970;SDS011;53901;51.466;-2.588;2023-05-10T01:03:46;49.67;;;20.13;;
66970;SDS011;53901;51.466;-2.588;2023-05-10T01:06:12;41.83;;;19.35;;
66970;SDS011;53901;51.466;-2.588;2023-05-10T01:08:37;47.33;;;19.30;;
66970;SDS011;53901;51.466;-2.588;2023-05-10T01:11:03;45.88;;;20.33;;
66970;SDS011;53901;51.466;-2.588;2023-05-10T01:15:58;45.80;;;19.48;;
66970;SDS011;53901;51.466;-2.588;2023-05-10T01:18:26;52.35;;;19.95;;
66970;SDS011;53901;51.466;-2.588;2023-05-10T01:20:56;49.42;;;17.58;;
66970;SDS011;53901;51.466;-2.588;2023-05-10T01:23:32;38.53;;;18.00;;
66970;SDS011;53901;51.466;-2.588;2023-05-10T01:32:19;41.92;;;17.90;;
66970;SDS011;53901;51.466;-2.588;2023-05-10T01:35:15;39.97;;;19.00;;
66970;SDS011;53901;51.466;-2.588;2023-05-10T01:43:35;45.17;;;18.90;;
66970;SDS011;53901;51.466;-2.588;2023-05-10T01:46:14;48.83;;;20.13;;
66970;SDS011;53901;51.466;-2.588;2023-05-10T01:48:45;41.13;;;19.88;;
66970;SDS011;53901;51.466;-2.588;2023-05-10T01:51:17;44.65;;;20.80;;
66970;SDS011;53901;51.466;-2.588;2023-05-10T01:53:46;40.53;;;19.83;;
66970;SDS011;53901;51.466;-2.588;2023-05-10T01:56:12;47.10;;;20.00;;
66970;SDS011;53901;51.466;-2.588;2023-05-10T01:58:39;48.33;;;20.73;;
66970;SDS011;53901;51.466;-2.588;2023-05-10T02:01:05;50.90;;;20.92;;
66970;SDS011;53901;51.466;-2.588;2023-05-10T02:03:32;43.00;;;19.67;;
66970;SDS011;53901;51.466;-2.588;2023-05-10T02:05:59;47.35;;;20.40;;
66970;SDS011;53901;51.466;-2.588;2023-05-10T02:08:24;42.30;;;20.65;;
66970;SDS011;53901;51.466;-2.588;2023-05-10T02:10:54;40.03;;;20.10;;
66970;SDS011;53901;51.466;-2.588;2023-05-10T02:13:21;49.50;;;20.45;;
66970;SDS011;53901;51.466;-2.588;2023-05-10T02:15:48;47.50;;;20.92;;
66970;SDS011;53901;51.466;-2.588;2023-05-10T02:18:14;39.28;;;19.02;;
66970;SDS011;53901;51.466;-2.588;2023-05-10T02:20:40;35.38;;;15.63;;
66970;SDS011;53901;51.466;-2.588;2023-05-10T02:23:07;37.28;;;17.42;;
66970;SDS011;53901;51.466;-2.588;2023-05-10T02:25:33;37.15;;;17.58;;
66970;SDS011;53901;51.466;-2.588;2023-05-10T02:27:59;46.05;;;17.63;;
66970;SDS011;53901;51.466;-2.588;2023-05-10T02:30:27;45.35;;;17.75;;
66970;SDS011;53901;51.466;-2.588;2023-05-10T02:32:53;37.13;;;16.00;;
66970;SDS011;53901;51.466;-2.588;2023-05-10T02:35:19;39.03;;;16.73;;
66970;SDS011;53901;51.466;-2.588;2023-05-10T02:37:46;39.75;;;17.38;;
66970;SDS011;53901;51.466;-2.588;2023-05-10T02:40:12;46.88;;;18.23;;
66970;SDS011;53901;51.466;-2.588;2023-05-10T02:42:38;39.53;;;16.85;;
66970;SDS011;53901;51.466;-2.588;2023-05-10T02:45:07;33.03;;;16.85;;
66970;SDS011;53901;51.466;-2.588;2023-05-10T02:47:36;35.78;;;16.25;;
66970;SDS011;53901;51.466;-2.588;2023-05-10T02:50:01;44.45;;;15.80;;
66970;SDS011;53901;51.466;-2.588;2023-05-10T02:52:28;38.10;;;15.80;;
66970;SDS011;53901;51.466;-2.588;2023-05-10T02:54:56;37.00;;;15.48;;
66970;SDS011;53901;51.466;-2.588;2023-05-10T02:57:28;38.70;;;15.00;;
66970;SDS011;53901;51.466;-2.588;2023-05-10T02:59:57;32.10;;;14.02;;
66970;SDS011;53901;51.466;-2.588;2023-05-10T03:02:23;37.95;;;14.77;;
66970;SDS011;53901;51.466;-2.588;2023-05-10T03:04:48;37.70;;;15.18;;
66970;SDS011;53901;51.466;-2.588;2023-05-10T03:07:14;39.33;;;15.38;;
66970;SDS011;53901;51.466;-2.588;2023-05-10T03:09:40;34.50;;;13.65;;
66970;SDS011;53901;51.466;-2.588;2023-05-10T03:17:55;37.83;;;13.35;;
66970;SDS011;53901;51.466;-2.588;2023-05-10T03:20:24;35.15;;;13.38;;
66970;SDS011;53901;51.466;-2.588;2023-05-10T03:22:53;39.25;;;13.65;;
66970;SDS011;53901;51.466;-2.588;2023-05-10T03:25:21;41.10;;;13.32;;
66970;SDS011;53901;51.466;-2.588;2023-05-10T03:27:47;34.10;;;12.85;;
66970;SDS011;53901;51.466;-2.588;2023-05-10T03:30:13;41.92;;;14.23;;
66970;SDS011;53901;51.466;-2.588;2023-05-10T03:32:38;34.05;;;12.88;;
66970;SDS011;53901;51.466;-2.588;2023-05-10T03:35:10;41.03;;;12.95;;
66970;SDS011;53901;51.466;-2.588;2023-05-10T03:37:38;39.45;;;12.80;;
66970;SDS011;53901;51.466;-2.588;2023-05-10T03:40:03;35.50;;;12.40;;
66970;SDS011;53901;51.466;-2.588;2023-05-10T03:42:30;37.95;;;11.75;;
66970;SDS011;53901;51.466;-2.588;2023-05-10T03:44:55;36.80;;;12.55;;
66970;SDS011;53901;51.466;-2.588;2023-05-10T03:47:20;36.35;;;11.60;;
66970;SDS011;53901;51.466;-2.588;2023-05-10T03:49:46;39.88;;;12.05;;
66970;SDS011;53901;51.466;-2.588;2023-05-10T03:52:11;37.45;;;11.55;;
66970;SDS011;53901;51.466;-2.588;2023-05-10T03:54:37;38.72;;;11.15;;
66970;SDS011;53901;51.466;-2.588;2023-05-10T03:57:02;38.30;;;11.48;;
66970;SDS011;53901;51.466;-2.588;2023-05-10T03:59:28;37.30;;;10.73;;
66970;SDS011;53901;51.466;-2.588;2023-05-10T04:01:54;33.33;;;10.93;;
66970;SDS011;53901;51.466;-2.588;2023-05-10T04:04:19;39.63;;;11.15;;
66970;SDS011;53901;51.466;-2.588;2023-05-10T04:06:46;40.47;;;11.80;;
66970;SDS011;53901;51.466;-2.588;2023-05-10T04:09:11;46.42;;;11.80;;
66970;SDS011;53901;51.466;-2.588;2023-05-10T04:11:37;41.95;;;11.93;;
66970;SDS011;53901;51.466;-2.588;2023-05-10T04:14:02;41.13;;;13.43;;
66970;SDS011;53901;51.466;-2.588;2023-05-10T04:16:28;40.47;;;12.80;;
66970;SDS011;53901;51.466;-2.588;2023-05-10T04:18:53;38.33;;;11.70;;
66970;SDS011;53901;51.466;-2.588;2023-05-10T04:21:18;42.17;;;12.55;;
66970;SDS011;53901;51.466;-2.588;2023-05-10T04:23:44;43.22;;;11.85;;
66970;SDS011;53901;51.466;-2.588;2023-05-10T04:26:09;43.33;;;12.50;;
66970;SDS011;53901;51.466;-2.588;2023-05-10T04:28:35;44.58;;;13.23;;
66970;SDS011;53901;51.466;-2.588;2023-05-10T04:31:03;43.10;;;12.30;;
66970;SDS011;53901;51.466;-2.588;2023-05-10T04:33:34;30.55;;;10.73;;
66970;SDS011;53901;51.466;-2.588;2023-05-10T04:36:00;36.80;;;10.50;;
66970;SDS011;53901;51.466;-2.588;2023-05-10T04:38:26;32.75;;;11.40;;
66970;SDS011;53901;51.466;-2.588;2023-05-10T04:40:51;42.00;;;11.40;;
66970;SDS011;53901;51.466;-2.588;2023-05-10T04:43:17;34.80;;;10.82;;
66970;SDS011;53901;51.466;-2.588;2023-05-10T04:45:43;32.92;;;10.82;;
66970;SDS011;53901;51.466;-2.588;2023-05-10T04:48:08;33.97;;;10.63;;
66970;SDS011;53901;51.466;-2.588;2023-05-10T04:50:33;35.50;;;10.55;;
66970;SDS011;53901;51.466;-2.588;2023-05-10T04:52:59;33.50;;;10.10;;
66970;SDS011;53901;51.466;-2.588;2023-05-10T04:55:24;25.80;;;10.65;;
66970;SDS011;53901;51.466;-2.588;2023-05-10T04:57:50;41.78;;;11.85;;
66970;SDS011;53901;51.466;-2.588;2023-05-10T05:00:15;37.42;;;11.23;;
66970;SDS011;53901;51.466;-2.588;2023-05-10T05:02:44;36.78;;;11.18;;
66970;SDS011;53901;51.466;-2.588;2023-05-10T05:05:13;33.95;;;11.35;;
66970;SDS011;53901;51.466;-2.588;2023-05-10T05:07:38;36.50;;;12.18;;
66970;SDS011;53901;51.466;-2.588;2023-05-10T05:10:05;36.75;;;12.00;;
66970;SDS011;53901;51.466;-2.588;2023-05-10T05:12:31;43.28;;;11.95;;
66970;SDS011;53901;51.466;-2.588;2023-05-10T05:14:57;39.70;;;11.43;;
66970;SDS011;53901;51.466;-2.588;2023-05-10T05:17:22;37.30;;;11.52;;
66970;SDS011;53901;51.466;-2.588;2023-05-10T05:19:48;36.95;;;11.48;;
66970;SDS011;53901;51.466;-2.588;2023-05-10T05:22:13;34.80;;;10.25;;
66970;SDS011;53901;51.466;-2.588;2023-05-10T05:24:38;36.63;;;11.50;;
66970;SDS011;53901;51.466;-2.588;2023-05-10T05:27:04;40.78;;;12.35;;
66970;SDS011;53901;51.466;-2.588;2023-05-10T05:29:29;38.22;;;11.43;;
66970;SDS011;53901;51.466;-2.588;2023-05-10T05:31:55;38.85;;;12.02;;
66970;SDS011;53901;51.466;-2.588;2023-05-10T05:34:20;35.80;;;11.57;;
66970;SDS011;53901;51.466;-2.588;2023-05-10T05:36:46;37.00;;;10.82;;
66970;SDS011;53901;51.466;-2.588;2023-05-10T05:39:12;36.80;;;11.23;;
66970;SDS011;53901;51.466;-2.588;2023-05-10T05:41:37;35.03;;;12.13;;
66970;SDS011;53901;51.466;-2.588;2023-05-10T05:44:02;35.05;;;12.65;;
66970;SDS011;53901;51.466;-2.588;2023-05-10T05:46:28;30.33;;;11.63;;
66970;SDS011;53901;51.466;-2.588;2023-05-10T05:48:53;43.22;;;12.48;;
66970;SDS011;53901;51.466;-2.588;2023-05-10T05:51:19;42.53;;;12.75;;
66970;SDS011;53901;51.466;-2.588;2023-05-10T05:53:45;33.38;;;12.30;;
66970;SDS011;53901;51.466;-2.588;2023-05-10T05:56:10;42.58;;;12.48;;
66970;SDS011;53901;51.466;-2.588;2023-05-10T05:58:35;41.92;;;13.18;;
66970;SDS011;53901;51.466;-2.588;2023-05-10T06:01:01;32.65;;;11.38;;
66970;SDS011;53901;51.466;-2.588;2023-05-10T06:03:26;38.53;;;12.25;;
66970;SDS011;53901;51.466;-2.588;2023-05-10T06:05:51;31.40;;;10.45;;
66970;SDS011;53901;51.466;-2.588;2023-05-10T06:08:17;31.35;;;10.77;;
66970;SDS011;53901;51.466;-2.588;2023-05-10T06:10:42;29.73;;;10.13;;
66970;SDS011;53901;51.466;-2.588;2023-05-10T06:13:08;29.98;;;8.82;;
66970;SDS011;53901;51.466;-2.588;2023-05-10T06:15:33;32.22;;;8.82;;
66970;SDS011;53901;51.466;-2.588;2023-05-10T06:18:02;27.58;;;7.35;;
66970;SDS011;53901;51.466;-2.588;2023-05-10T06:20:27;32.53;;;9.20;;
66970;SDS011;53901;51.466;-2.588;2023-05-10T06:22:52;25.38;;;5.70;;
66970;SDS011;53901;51.466;-2.588;2023-05-10T06:25:18;25.48;;;6.10;;
66970;SDS011;53901;51.466;-2.588;2023-05-10T06:27:43;17.58;;;4.45;;
66970;SDS011;53901;51.466;-2.588;2023-05-10T06:30:09;27.55;;;4.93;;
66970;SDS011;53901;51.466;-2.588;2023-05-10T06:32:35;23.70;;;5.30;;
66970;SDS011;53901;51.466;-2.588;2023-05-10T06:35:00;24.58;;;5.03;;
66970;SDS011;53901;51.466;-2.588;2023-05-10T06:37:26;23.50;;;4.78;;
66970;SDS011;53901;51.466;-2.588;2023-05-10T06:39:51;26.00;;;5.85;;
66970;SDS011;53901;51.466;-2.588;2023-05-10T06:42:17;28.60;;;6.35;;
66970;SDS011;53901;51.466;-2.588;2023-05-10T06:44:42;23.67;;;4.78;;
66970;SDS011;53901;51.466;-2.588;2023-05-10T06:47:08;22.48;;;4.50;;
66970;SDS011;53901;51.466;-2.588;2023-05-10T06:49:34;22.50;;;4.75;;
66970;SDS011;53901;51.466;-2.588;2023-05-10T06:51:59;26.23;;;4.43;;
66970;SDS011;53901;51.466;-2.588;2023-05-10T06:54:25;21.50;;;4.07;;
66970;SDS011;53901;51.466;-2.588;2023-05-10T06:56:50;24.63;;;4.88;;
66970;SDS011;53901;51.466;-2.588;2023-05-10T06:59:16;25.20;;;5.40;;
66970;SDS011;53901;51.466;-2.588;2023-05-10T07:01:41;22.40;;;4.38;;
66970;SDS011;53901;51.466;-2.588;2023-05-10T07:04:07;17.90;;;3.38;;
66970;SDS011;53901;51.466;-2.588;2023-05-10T07:06:33;19.95;;;3.92;;
66970;SDS011;53901;51.466;-2.588;2023-05-10T07:09:00;21.50;;;3.75;;
66970;SDS011;53901;51.466;-2.588;2023-05-10T07:11:25;20.67;;;4.60;;
66970;SDS011;53901;51.466;-2.588;2023-05-10T07:13:51;20.38;;;4.88;;
66970;SDS011;53901;51.466;-2.588;2023-05-10T07:16:17;17.90;;;3.63;;
66970;SDS011;53901;51.466;-2.588;2023-05-10T07:18:42;21.95;;;4.10;;
66970;SDS011;53901;51.466;-2.588;2023-05-10T07:21:08;24.63;;;4.00;;
66970;SDS011;53901;51.466;-2.588;2023-05-10T07:23:33;19.33;;;4.45;;
66970;SDS011;53901;51.466;-2.588;2023-05-10T07:25:58;20.52;;;4.53;;
66970;SDS011;53901;51.466;-2.588;2023-05-10T07:28:24;17.90;;;3.85;;
66970;SDS011;53901;51.466;-2.588;2023-05-10T07:30:49;18.25;;;4.15;;
66970;SDS011;53901;51.466;-2.588;2023-05-10T07:33:15;21.88;;;4.00;;
66970;SDS011;53901;51.466;-2.588;2023-05-10T07:35:41;26.15;;;3.95;;
66970;SDS011;53901;51.466;-2.588;2023-05-10T07:38:06;14.40;;;3.65;;
66970;SDS011;53901;51.466;-2.588;2023-05-10T07:40:32;19.23;;;3.58;;
66970;SDS011;53901;51.466;-2.588;2023-05-10T07:42:57;18.33;;;4.18;;
66970;SDS011;53901;51.466;-2.588;2023-05-10T07:45:23;20.48;;;3.70;;
66970;SDS011;53901;51.466;-2.588;2023-05-10T07:47:49;17.27;;;3.83;;
66970;SDS011;53901;51.466;-2.588;2023-05-10T07:50:15;18.52;;;3.88;;
66970;SDS011;53901;51.466;-2.588;2023-05-10T07:52:40;14.55;;;4.03;;
66970;SDS011;53901;51.466;-2.588;2023-05-10T07:55:06;16.90;;;3.97;;
66970;SDS011;53901;51.466;-2.588;2023-05-10T07:57:33;20.92;;;4.55;;
66970;SDS011;53901;51.466;-2.588;2023-05-10T07:59:58;27.45;;;4.78;;
66970;SDS011;53901;51.466;-2.588;2023-05-10T08:02:24;18.50;;;4.28;;
66970;SDS011;53901;51.466;-2.588;2023-05-10T08:04:50;16.15;;;3.63;;
66970;SDS011;53901;51.466;-2.588;2023-05-10T08:07:15;19.85;;;3.88;;
66970;SDS011;53901;51.466;-2.588;2023-05-10T08:09:41;20.88;;;4.75;;
66970;SDS011;53901;51.466;-2.588;2023-05-10T08:12:06;18.33;;;4.05;;
66970;SDS011;53901;51.466;-2.588;2023-05-10T08:14:32;19.35;;;3.58;;
66970;SDS011;53901;51.466;-2.588;2023-05-10T08:16:57;25.42;;;4.97;;
66970;SDS011;53901;51.466;-2.588;2023-05-10T08:19:22;14.73;;;3.60;;
66970;SDS011;53901;51.466;-2.588;2023-05-10T08:21:48;15.15;;;3.80;;
66970;SDS011;53901;51.466;-2.588;2023-05-10T08:24:14;16.60;;;3.92;;
66970;SDS011;53901;51.466;-2.588;2023-05-10T08:26:39;18.75;;;3.95;;
66970;SDS011;53901;51.466;-2.588;2023-05-10T08:29:05;18.75;;;4.30;;
66970;SDS011;53901;51.466;-2.588;2023-05-10T08:31:30;25.73;;;4.28;;
66970;SDS011;53901;51.466;-2.588;2023-05-10T08:33:55;16.92;;;3.88;;
66970;SDS011;53901;51.466;-2.588;2023-05-10T08:36:21;17.08;;;3.60;;
66970;SDS011;53901;51.466;-2.588;2023-05-10T08:38:50;27.58;;;4.90;;
66970;SDS011;53901;51.466;-2.588;2023-05-10T08:41:16;27.50;;;5.20;;
66970;SDS011;53901;51.466;-2.588;2023-05-10T08:43:43;14.18;;;3.50;;
66970;SDS011;53901;51.466;-2.588;2023-05-10T08:46:11;20.95;;;4.10;;
66970;SDS011;53901;51.466;-2.588;2023-05-10T08:48:40;12.00;;;3.47;;
66970;SDS011;53901;51.466;-2.588;2023-05-10T08:51:06;17.73;;;3.90;;
66970;SDS011;53901;51.466;-2.588;2023-05-10T08:53:33;12.48;;;3.58;;
66970;SDS011;53901;51.466;-2.588;2023-05-10T08:56:01;25.83;;;4.25;;
66970;SDS011;53901;51.466;-2.588;2023-05-10T08:58:27;23.50;;;4.78;;
66970;SDS011;53901;51.466;-2.588;2023-05-10T09:00:53;21.00;;;3.95;;
66970;SDS011;53901;51.466;-2.588;2023-05-10T09:03:18;18.25;;;4.70;;
66970;SDS011;53901;51.466;-2.588;2023-05-10T09:05:44;15.82;;;3.60;;
66970;SDS011;53901;51.466;-2.588;2023-05-10T09:08:09;23.45;;;4.75;;
66970;SDS011;53901;51.466;-2.588;2023-05-10T09:10:37;27.77;;;4.90;;
66970;SDS011;53901;51.466;-2.588;2023-05-10T09:13:03;26.33;;;6.00;;
66970;SDS011;53901;51.466;-2.588;2023-05-10T09:15:29;19.30;;;5.05;;
66970;SDS011;53901;51.466;-2.588;2023-05-10T09:17:55;18.27;;;5.75;;
66970;SDS011;53901;51.466;-2.588;2023-05-10T09:20:22;22.52;;;4.80;;
66970;SDS011;53901;51.466;-2.588;2023-05-10T09:22:48;23.58;;;6.10;;
66970;SDS011;53901;51.466;-2.588;2023-05-10T09:25:15;23.90;;;5.28;;
66970;SDS011;53901;51.466;-2.588;2023-05-10T09:27:43;19.98;;;4.95;;
66970;SDS011;53901;51.466;-2.588;2023-05-10T09:30:10;23.85;;;4.93;;
66970;SDS011;53901;51.466;-2.588;2023-05-10T09:32:37;21.00;;;4.85;;
66970;SDS011;53901;51.466;-2.588;2023-05-10T09:37:38;18.63;;;4.68;;
66970;SDS011;53901;51.466;-2.588;2023-05-10T09:40:06;20.52;;;4.35;;
66970;SDS011;53901;51.466;-2.588;2023-05-10T09:42:39;17.80;;;3.50;;
66970;SDS011;53901;51.466;-2.588;2023-05-10T09:45:06;18.90;;;4.03;;
66970;SDS011;53901;51.466;-2.588;2023-05-10T09:47:32;15.82;;;3.22;;
66970;SDS011;53901;51.466;-2.588;2023-05-10T09:49:58;18.85;;;3.63;;
66970;SDS011;53901;51.466;-2.588;2023-05-10T09:52:28;19.33;;;3.63;;
66970;SDS011;53901;51.466;-2.588;2023-05-10T09:55:10;19.50;;;3.85;;
66970;SDS011;53901;51.466;-2.588;2023-05-10T09:57:36;24.65;;;4.07;;
66970;SDS011;53901;51.466;-2.588;2023-05-10T10:00:01;18.60;;;4.40;;
66970;SDS011;53901;51.466;-2.588;2023-05-10T10:02:29;17.00;;;3.60;;
66970;SDS011;53901;51.466;-2.588;2023-05-10T10:04:56;22.52;;;4.20;;
66970;SDS011;53901;51.466;-2.588;2023-05-10T10:07:22;18.13;;;3.70;;
66970;SDS011;53901;51.466;-2.588;2023-05-10T10:09:49;20.08;;;3.50;;
66970;SDS011;53901;51.466;-2.588;2023-05-10T10:12:14;29.40;;;5.47;;
66970;SDS011;53901;51.466;-2.588;2023-05-10T10:14:40;21.60;;;3.65;;
66970;SDS011;53901;51.466;-2.588;2023-05-10T10:17:05;12.98;;;2.58;;
66970;SDS011;53901;51.466;-2.588;2023-05-10T10:19:32;8.57;;;1.95;;
66970;SDS011;53901;51.466;-2.588;2023-05-10T10:21:59;13.75;;;3.25;;
66970;SDS011;53901;51.466;-2.588;2023-05-10T10:24:25;14.18;;;2.38;;
66970;SDS011;53901;51.466;-2.588;2023-05-10T10:26:50;18.52;;;3.30;;
66970;SDS011;53901;51.466;-2.588;2023-05-10T10:34:22;22.63;;;3.38;;
66970;SDS011;53901;51.466;-2.588;2023-05-10T10:36:55;17.80;;;2.58;;
66970;SDS011;53901;51.466;-2.588;2023-05-10T10:39:21;15.18;;;2.90;;
66970;SDS011;53901;51.466;-2.588;2023-05-10T10:41:54;18.50;;;2.58;;
66970;SDS011;53901;51.466;-2.588;2023-05-10T10:49:37;16.83;;;3.28;;
66970;SDS011;53901;51.466;-2.588;2023-05-10T10:55:08;19.45;;;2.97;;
66970;SDS011;53901;51.466;-2.588;2023-05-10T10:57:51;16.95;;;2.70;;
66970;SDS011;53901;51.466;-2.588;2023-05-10T11:00:32;16.70;;;3.42;;
66970;SDS011;53901;51.466;-2.588;2023-05-10T11:10:37;20.23;;;3.05;;
66970;SDS011;53901;51.466;-2.588;2023-05-10T11:13:06;13.73;;;3.00;;
66970;SDS011;53901;51.466;-2.588;2023-05-10T11:15:34;25.20;;;3.10;;
66970;SDS011;53901;51.466;-2.588;2023-05-10T11:18:20;20.92;;;2.83;;
66970;SDS011;53901;51.466;-2.588;2023-05-10T11:20:50;17.45;;;3.55;;
66970;SDS011;53901;51.466;-2.588;2023-05-10T11:23:17;20.33;;;3.10;;
66970;SDS011;53901;51.466;-2.588;2023-05-10T11:25:43;20.15;;;3.40;;
66970;SDS011;53901;51.466;-2.588;2023-05-10T11:28:10;16.65;;;3.42;;
66970;SDS011;53901;51.466;-2.588;2023-05-10T11:30:38;12.68;;;2.53;;
66970;SDS011;53901;51.466;-2.588;2023-05-10T11:33:05;15.82;;;3.17;;
66970;SDS011;53901;51.466;-2.588;2023-05-10T11:35:32;14.70;;;2.80;;
66970;SDS011;53901;51.466;-2.588;2023-05-10T11:38:02;14.00;;;2.33;;
66970;SDS011;53901;51.466;-2.588;2023-05-10T11:40:30;16.75;;;2.35;;
66970;SDS011;53901;51.466;-2.588;2023-05-10T11:42:56;12.65;;;2.30;;
66970;SDS011;53901;51.466;-2.588;2023-05-10T11:45:23;9.93;;;2.25;;
66970;SDS011;53901;51.466;-2.588;2023-05-10T11:47:49;14.70;;;2.28;;
66970;SDS011;53901;51.466;-2.588;2023-05-10T11:50:15;12.55;;;2.53;;
66970;SDS011;53901;51.466;-2.588;2023-05-10T11:52:40;13.00;;;2.65;;
66970;SDS011;53901;51.466;-2.588;2023-05-10T11:55:06;11.57;;;2.40;;
66970;SDS011;53901;51.466;-2.588;2023-05-10T11:57:31;10.98;;;2.33;;
66970;SDS011;53901;51.466;-2.588;2023-05-10T11:59:57;9.68;;;2.28;;
66970;SDS011;53901;51.466;-2.588;2023-05-10T12:02:23;10.10;;;2.03;;
66970;SDS011;53901;51.466;-2.588;2023-05-10T12:04:49;14.90;;;2.67;;
66970;SDS011;53901;51.466;-2.588;2023-05-10T12:07:15;13.10;;;2.30;;
66970;SDS011;53901;51.466;-2.588;2023-05-10T12:09:44;14.82;;;2.25;;
66970;SDS011;53901;51.466;-2.588;2023-05-10T12:12:10;13.27;;;2.15;;
66970;SDS011;53901;51.466;-2.588;2023-05-10T12:14:41;13.55;;;2.67;;
66970;SDS011;53901;51.466;-2.588;2023-05-10T12:17:11;12.93;;;2.40;;
66970;SDS011;53901;51.466;-2.588;2023-05-10T12:19:40;14.38;;;2.38;;
66970;SDS011;53901;51.466;-2.588;2023-05-10T12:22:06;16.30;;;3.17;;
66970;SDS011;53901;51.466;-2.588;2023-05-10T12:24:35;14.88;;;2.28;;
66970;SDS011;53901;51.466;-2.588;2023-05-10T12:27:04;10.93;;;2.40;;
66970;SDS011;53901;51.466;-2.588;2023-05-10T12:29:32;17.15;;;2.58;;
66970;SDS011;53901;51.466;-2.588;2023-05-10T12:31:58;8.43;;;2.00;;
66970;SDS011;53901;51.466;-2.588;2023-05-10T12:36:55;6.85;;;1.83;;
66970;SDS011;53901;51.466;-2.588;2023-05-10T12:39:20;11.40;;;2.33;;
66970;SDS011;53901;51.466;-2.588;2023-05-10T12:41:46;12.15;;;2.10;;
66970;SDS011;53901;51.466;-2.588;2023-05-10T12:44:11;11.82;;;2.50;;
66970;SDS011;53901;51.466;-2.588;2023-05-10T12:46:37;13.95;;;2.95;;
66970;SDS011;53901;51.466;-2.588;2023-05-10T12:49:02;14.38;;;3.55;;
66970;SDS011;53901;51.466;-2.588;2023-05-10T12:51:28;13.25;;;5.82;;
66970;SDS011;53901;51.466;-2.588;2023-05-10T12:53:53;11.55;;;2.38;;
66970;SDS011;53901;51.466;-2.588;2023-05-10T12:56:19;7.18;;;1.73;;
66970;SDS011;53901;51.466;-2.588;2023-05-10T12:58:45;12.23;;;2.47;;
66970;SDS011;53901;51.466;-2.588;2023-05-10T13:01:13;10.13;;;1.83;;
66970;SDS011;53901;51.466;-2.588;2023-05-10T13:03:39;19.42;;;2.22;;
66970;SDS011;53901;51.466;-2.588;2023-05-10T13:06:04;10.43;;;2.08;;
66970;SDS011;53901;51.466;-2.588;2023-05-10T13:08:31;8.23;;;2.13;;
66970;SDS011;53901;51.466;-2.588;2023-05-10T13:10:58;13.75;;;2.40;;
66970;SDS011;53901;51.466;-2.588;2023-05-10T13:13:24;14.05;;;2.05;;
66970;SDS011;53901;51.466;-2.588;2023-05-10T13:15:50;14.48;;;2.50;;
66970;SDS011;53901;51.466;-2.588;2023-05-10T13:18:15;8.85;;;1.83;;
66970;SDS011;53901;51.466;-2.588;2023-05-10T13:20:41;13.10;;;2.08;;
66970;SDS011;53901;51.466;-2.588;2023-05-10T13:23:08;9.48;;;1.50;;
66970;SDS011;53901;51.466;-2.588;2023-05-10T13:25:33;12.45;;;2.00;;
66970;SDS011;53901;51.466;-2.588;2023-05-10T13:27:59;6.95;;;1.58;;
66970;SDS011;53901;51.466;-2.588;2023-05-10T13:30:24;9.30;;;2.13;;
66970;SDS011;53901;51.466;-2.588;2023-05-10T13:32:50;8.95;;;1.55;;
66970;SDS011;53901;51.466;-2.588;2023-05-10T13:35:15;11.57;;;1.40;;
66970;SDS011;53901;51.466;-2.588;2023-05-10T13:37:41;6.18;;;1.52;;
66970;SDS011;53901;51.466;-2.588;2023-05-10T13:40:06;7.80;;;1.33;;
66970;SDS011;53901;51.466;-2.588;2023-05-10T13:42:32;5.78;;;1.23;;
66970;SDS011;53901;51.466;-2.588;2023-05-10T13:44:58;13.95;;;1.50;;
66970;SDS011;53901;51.466;-2.588;2023-05-10T13:47:24;6.57;;;1.30;;
66970;SDS011;53901;51.466;-2.588;2023-05-10T13:49:50;8.68;;;1.98;;
66970;SDS011;53901;51.466;-2.588;2023-05-10T13:52:15;7.22;;;1.45;;
66970;SDS011;53901;51.466;-2.588;2023-05-10T13:54:41;8.60;;;1.77;;
66970;SDS011;53901;51.466;-2.588;2023-05-10T13:57:06;7.25;;;1.50;;
66970;SDS011;53901;51.466;-2.588;2023-05-10T13:59:32;6.50;;;1.30;;
66970;SDS011;53901;51.466;-2.588;2023-05-10T14:01:58;6.03;;;0.98;;
66970;SDS011;53901;51.466;-2.588;2023-05-10T14:04:23;5.47;;;1.10;;
66970;SDS011;53901;51.466;-2.588;2023-05-10T14:06:49;5.57;;;1.20;;
66970;SDS011;53901;51.466;-2.588;2023-05-10T14:09:15;5.40;;;1.25;;
66970;SDS011;53901;51.466;-2.588;2023-05-10T14:11:41;6.47;;;1.10;;
66970;SDS011;53901;51.466;-2.588;2023-05-10T14:14:08;4.93;;;1.13;;
66970;SDS011;53901;51.466;-2.588;2023-05-10T14:16:34;8.18;;;1.35;;
66970;SDS011;53901;51.466;-2.588;2023-05-10T14:18:59;5.28;;;0.93;;
66970;SDS011;53901;51.466;-2.588;2023-05-10T14:21:25;5.07;;;1.00;;
66970;SDS011;53901;51.466;-2.588;2023-05-10T14:23:50;7.10;;;1.20;;
66970;SDS011;53901;51.466;-2.588;2023-05-10T14:26:16;6.63;;;1.40;;
66970;SDS011;53901;51.466;-2.588;2023-05-10T14:28:41;5.57;;;1.35;;
66970;SDS011;53901;51.466;-2.588;2023-05-10T14:31:07;7.82;;;1.20;;
66970;SDS011;53901;51.466;-2.588;2023-05-10T14:33:32;5.88;;;1.50;;
66970;SDS011;53901;51.466;-2.588;2023-05-10T14:35:57;9.13;;;1.33;;
66970;SDS011;53901;51.466;-2.588;2023-05-10T14:38:24;8.10;;;1.70;;
66970;SDS011;53901;51.466;-2.588;2023-05-10T14:40:49;7.05;;;1.25;;
66970;SDS011;53901;51.466;-2.588;2023-05-10T14:43:15;5.82;;;1.17;;
66970;SDS011;53901;51.466;-2.588;2023-05-10T14:45:40;5.88;;;1.20;;
66970;SDS011;53901;51.466;-2.588;2023-05-10T14:48:06;6.30;;;1.20;;
66970;SDS011;53901;51.466;-2.588;2023-05-10T14:50:36;9.02;;;1.25;;
66970;SDS011;53901;51.466;-2.588;2023-05-10T14:53:01;9.02;;;2.03;;
66970;SDS011;53901;51.466;-2.588;2023-05-10T14:55:27;6.65;;;1.48;;
66970;SDS011;53901;51.466;-2.588;2023-05-10T14:57:52;11.00;;;1.25;;
66970;SDS011;53901;51.466;-2.588;2023-05-10T15:00:18;5.88;;;1.17;;